Fair Isle, United Kingdom
Current Conditions -  °F | °C
As of 4:20 PM on Thursday 30 Oct 2014 (Local Time) from EGPB Reporting Station
Light Rain Light Rain  
Wind Chill: 38°   Ceiling: 800
Heat Index: 46°   Visibility: 3mi
Dew Point: 45°   Wind: 23mph
Humidity: 93%   Direction: 100°E
Pressure: 29.94"   Gusts: NA
Location:  59.53°N, 1.63°W
Report Text: EGPB 301620Z 10020KT 5000 -RA SCT006 BKN008 08/07 Q1014 TEMPO BKN006
Loading
Personal Weather Stations






























Interactive Weather Map
Tropical Storm Tracking
New forecast layout! Learn more

10-Day Weather Forecast

Advertisements
Track Severe Weather on mobile